Disautel, Washington
Current Conditions -  °F | °C
As of 1:01 PM on Sunday 23 Nov 2014 (Local Time) from KOMK Reporting Station
Scattered Clouds Scattered Clouds  
Wind Chill: -1°   Ceiling: Unl
Heat Index:   Visibility: 10mi
Dew Point:   Wind: 10mph
Humidity: 82%   Direction: 200°SSW
Pressure: 29.97"   Gusts: NA
Location:  48.4274°N, 119.524°W
Report Text: KOMK 232101Z AUTO 20009KT 10SM SCT028 03/00 A2997 RMK AO2 T00280000
Loading
Personal Weather Stations






























Interactive Weather Map New forecast layout! Learn more

10-Day Weather Forecast

Advertisements
Track Severe Weather on mobile